createdAt,value
2023-01-28T00:01:11.917Z,12.37
2023-01-28T00:03:39.578Z,12.33
2023-01-28T00:06:08.092Z,12.77
2023-01-28T00:08:37.022Z,12.10
2023-01-28T00:11:05.443Z,12.60
2023-01-28T00:13:33.249Z,12.60
2023-01-28T00:16:02.112Z,11.67
2023-01-28T00:18:30.148Z,13.40
2023-01-28T00:20:58.694Z,12.27
2023-01-28T00:23:26.264Z,12.27
2023-01-28T00:25:55.578Z,13.63
2023-01-28T00:28:23.280Z,13.07
2023-01-28T00:30:50.799Z,12.63
2023-01-28T00:33:18.269Z,12.87
2023-01-28T00:35:47.911Z,12.57
2023-01-28T00:38:15.396Z,12.87
2023-01-28T00:40:42.838Z,13.07
2023-01-28T00:43:11.753Z,12.43
2023-01-28T00:45:39.688Z,12.50
2023-01-28T00:48:08.447Z,11.77
2023-01-28T00:50:35.954Z,12.13
2023-01-28T00:53:03.416Z,12.53
2023-01-28T00:55:30.933Z,11.63
2023-01-28T00:57:58.398Z,11.70
2023-01-28T01:00:27.295Z,12.20
2023-01-28T01:02:55.505Z,11.77
2023-01-28T01:05:23.092Z,11.63
2023-01-28T01:07:50.564Z,12.23
2023-01-28T01:10:19.087Z,12.03
2023-01-28T01:12:47.241Z,12.43
2023-01-28T01:15:15.215Z,12.87
2023-01-28T01:17:44.773Z,12.93
2023-01-28T01:20:14.440Z,12.50
2023-01-28T01:22:42.071Z,12.03
2023-01-28T01:25:10.056Z,12.77
2023-01-28T01:27:37.538Z,13.37
2023-01-28T01:30:05.446Z,13.50
2023-01-28T01:32:36.043Z,13.07
2023-01-28T01:35:06.720Z,12.97
2023-01-28T01:37:34.252Z,12.70
2023-01-28T01:40:04.612Z,12.87
2023-01-28T01:42:32.720Z,12.53
2023-01-28T01:45:01.620Z,12.73
2023-01-28T01:47:32.436Z,11.90
2023-01-28T01:50:00.845Z,12.20
2023-01-28T01:52:31.811Z,12.13
2023-01-28T01:55:01.224Z,11.77
2023-01-28T01:57:31.795Z,13.00
2023-01-28T02:00:06.321Z,11.90
2023-01-28T02:02:44.266Z,11.83
2023-01-28T02:05:13.943Z,12.80
2023-01-28T02:07:44.205Z,12.73
2023-01-28T02:10:12.311Z,12.40
2023-01-28T02:12:41.305Z,12.10
2023-01-28T02:15:10.481Z,13.17
2023-01-28T02:17:38.342Z,12.97
2023-01-28T02:20:08.273Z,12.73
2023-01-28T02:22:46.951Z,13.30
2023-01-28T02:25:35.559Z,12.37
2023-01-28T02:28:18.963Z,13.50
2023-01-28T02:30:51.654Z,14.27
2023-01-28T02:33:20.173Z,13.07
2023-01-28T02:35:49.330Z,12.67
2023-01-28T02:38:21.277Z,14.13
2023-01-28T02:41:03.789Z,13.67
2023-01-28T02:43:34.067Z,13.73
2023-01-28T02:46:23.027Z,12.63
2023-01-28T02:48:50.560Z,13.70
2023-01-28T02:51:23.759Z,15.07
2023-01-28T02:53:53.092Z,13.07
2023-01-28T02:56:29.260Z,15.17
2023-01-28T02:59:23.666Z,14.73
2023-01-28T03:01:58.322Z,13.50
2023-01-28T03:04:29.335Z,13.43
2023-01-28T03:06:59.795Z,13.60
2023-01-28T03:09:27.781Z,14.67
2023-01-28T03:12:14.979Z,14.03
2023-01-28T03:15:03.889Z,13.80
2023-01-28T03:17:51.669Z,13.67
2023-01-28T03:20:37.861Z,13.63
2023-01-28T03:23:27.154Z,13.87
2023-01-28T03:26:12.336Z,13.23
2023-01-28T03:28:57.752Z,14.17
2023-01-28T03:31:44.912Z,14.20
2023-01-28T03:34:32.190Z,15.03
2023-01-28T03:37:00.040Z,13.13
2023-01-28T03:39:45.584Z,14.03
2023-01-28T03:42:14.962Z,13.73
2023-01-28T03:44:56.041Z,13.67
2023-01-28T03:47:27.150Z,12.93
2023-01-28T03:49:55.989Z,12.77
2023-01-28T03:52:24.602Z,13.30
2023-01-28T03:54:53.475Z,12.77
2023-01-28T03:57:22.577Z,13.00
2023-01-28T03:59:50.533Z,12.50
2023-01-28T04:02:18.843Z,13.27
2023-01-28T04:04:50.089Z,13.10
2023-01-28T04:07:18.198Z,13.67
2023-01-28T04:10:08.620Z,13.67
2023-01-28T04:13:03.199Z,13.47
2023-01-28T04:15:31.612Z,12.80
2023-01-28T04:18:00.814Z,13.37
2023-01-28T04:20:32.404Z,12.27
2023-01-28T04:23:02.183Z,12.83
2023-01-28T04:25:30.398Z,12.10
2023-01-28T04:27:58.986Z,12.97
2023-01-28T04:30:29.565Z,12.90
2023-01-28T04:33:06.814Z,13.17
2023-01-28T04:35:54.130Z,12.77
2023-01-28T04:38:44.776Z,11.50
2023-01-28T04:41:41.546Z,12.37
2023-01-28T04:44:19.405Z,11.67
2023-01-28T04:46:58.855Z,12.37
2023-01-28T04:49:45.440Z,11.03
2023-01-28T04:52:37.181Z,11.33
2023-01-28T04:55:10.078Z,11.20
2023-01-28T04:57:38.707Z,10.63
2023-01-28T05:00:14.948Z,11.27
2023-01-28T05:02:45.920Z,10.63
2023-01-28T05:05:16.992Z,11.27
2023-01-28T05:08:00.922Z,11.03
2023-01-28T05:10:30.229Z,10.93
2023-01-28T05:13:00.144Z,10.47
2023-01-28T05:15:28.776Z,11.17
2023-01-28T05:17:57.014Z,10.53
2023-01-28T05:20:25.981Z,10.93
2023-01-28T05:22:57.779Z,10.87
2023-01-28T05:25:37.583Z,10.00
2023-01-28T05:28:05.927Z,10.70
2023-01-28T05:30:33.851Z,10.50
2023-01-28T05:33:03.071Z,10.47
2023-01-28T05:35:31.430Z,10.23
2023-01-28T05:38:01.439Z,10.93
2023-01-28T05:40:28.972Z,10.77
2023-01-28T05:43:00.867Z,10.77
2023-01-28T05:45:47.616Z,10.80
2023-01-28T05:48:26.039Z,10.90
2023-01-28T05:51:08.060Z,10.70
2023-01-28T05:53:40.267Z,10.43
2023-01-28T05:56:12.402Z,10.90
2023-01-28T05:58:41.671Z,10.63
2023-01-28T06:01:10.022Z,11.73
2023-01-28T06:03:43.882Z,11.73
2023-01-28T06:06:12.719Z,12.23
2023-01-28T06:08:43.563Z,11.57
2023-01-28T06:11:11.615Z,11.10
2023-01-28T06:13:41.576Z,11.33
2023-01-28T06:16:33.586Z,12.00
2023-01-28T06:19:24.999Z,11.50
2023-01-28T06:21:54.442Z,11.63
2023-01-28T06:24:24.341Z,11.67
2023-01-28T06:26:51.830Z,12.13
2023-01-28T06:29:20.687Z,12.13
2023-01-28T06:31:48.285Z,11.93
2023-01-28T06:34:18.892Z,12.37
2023-01-28T06:36:47.560Z,12.83
2023-01-28T06:39:15.532Z,12.23
2023-01-28T06:41:47.266Z,12.83
2023-01-28T06:44:18.110Z,11.47
2023-01-28T06:46:47.414Z,12.33
2023-01-28T06:49:16.908Z,12.40
2023-01-28T06:51:50.432Z,11.40
2023-01-28T06:54:21.773Z,12.13
2023-01-28T06:56:52.593Z,11.40
2023-01-28T06:59:21.243Z,12.80
2023-01-28T07:01:48.814Z,12.13
2023-01-28T07:04:17.726Z,11.47
2023-01-28T07:06:46.528Z,16.37
2023-01-28T07:09:14.027Z,11.90
2023-01-28T07:11:41.495Z,11.03
2023-01-28T07:14:12.233Z,10.03
2023-01-28T07:16:41.396Z,10.50
2023-01-28T07:19:08.868Z,10.83
2023-01-28T07:21:37.515Z,10.73
2023-01-28T07:24:07.120Z,10.40
2023-01-28T07:26:37.658Z,9.53
2023-01-28T07:29:07.090Z,10.07
2023-01-28T07:31:36.909Z,10.40
2023-01-28T07:34:04.412Z,10.27
2023-01-28T07:36:32.750Z,10.50
2023-01-28T07:39:01.829Z,10.13
2023-01-28T07:41:31.740Z,10.17
2023-01-28T07:44:06.171Z,9.73
2023-01-28T07:46:34.519Z,10.73
2023-01-28T07:49:04.297Z,9.70
2023-01-28T07:51:32.876Z,11.80
2023-01-28T07:54:02.156Z,11.33
2023-01-28T07:56:34.485Z,9.93
2023-01-28T07:59:06.308Z,10.97
2023-01-28T08:01:34.788Z,9.10
2023-01-28T08:04:06.130Z,10.10
2023-01-28T08:06:37.763Z,10.30
2023-01-28T08:09:06.097Z,9.33
2023-01-28T08:11:34.567Z,9.80
2023-01-28T08:14:02.103Z,9.70
2023-01-28T08:16:29.944Z,10.37
2023-01-28T08:18:58.843Z,9.83
2023-01-28T08:21:29.049Z,10.70
2023-01-28T08:23:59.193Z,9.90
2023-01-28T08:26:27.092Z,10.70
2023-01-28T08:28:54.955Z,9.97
2023-01-28T08:31:26.511Z,9.20
2023-01-28T08:33:56.397Z,10.37
2023-01-28T08:36:25.418Z,9.87
2023-01-28T08:38:55.427Z,9.30
2023-01-28T08:41:23.696Z,12.10
2023-01-28T08:43:51.186Z,10.93
2023-01-28T08:46:19.139Z,11.93
2023-01-28T08:48:48.212Z,8.93
2023-01-28T08:51:15.695Z,13.30
2023-01-28T08:53:45.775Z,12.53
2023-01-28T08:56:15.874Z,10.93
2023-01-28T08:58:44.950Z,9.97
2023-01-28T09:01:12.857Z,10.03
2023-01-28T09:03:41.145Z,10.07
2023-01-28T09:06:09.964Z,10.10
2023-01-28T09:08:37.855Z,10.07
2023-01-28T09:11:06.154Z,11.40
2023-01-28T09:13:35.206Z,10.33
2023-01-28T09:16:05.743Z,10.93
2023-01-28T09:18:33.462Z,9.90
2023-01-28T09:21:00.898Z,10.07
2023-01-28T09:23:28.578Z,9.40
2023-01-28T09:26:01.214Z,10.17
2023-01-28T09:28:29.873Z,9.13
2023-01-28T09:31:03.651Z,8.83
2023-01-28T09:33:31.393Z,9.03
2023-01-28T09:36:01.753Z,9.87
2023-01-28T09:38:31.675Z,9.87
2023-01-28T09:41:03.215Z,9.37
2023-01-28T09:43:41.050Z,9.00
2023-01-28T09:46:12.948Z,9.60
2023-01-28T09:48:43.086Z,8.73
2023-01-28T09:51:14.964Z,8.83
2023-01-28T09:53:48.357Z,9.00
2023-01-28T09:56:21.214Z,9.60
2023-01-28T09:58:48.818Z,10.10
2023-01-28T10:01:31.084Z,9.90
2023-01-28T10:04:05.897Z,10.83
2023-01-28T10:06:42.891Z,16.50
2023-01-28T10:09:19.865Z,11.30
2023-01-28T10:11:53.678Z,10.07
2023-01-28T10:14:27.067Z,10.83
2023-01-28T10:17:03.893Z,10.60
2023-01-28T10:19:34.564Z,10.50
2023-01-28T10:22:03.997Z,10.20
2023-01-28T10:24:37.651Z,11.47
2023-01-28T10:27:12.711Z,9.30
2023-01-28T10:29:46.027Z,9.10
2023-01-28T10:32:21.995Z,8.37
2023-01-28T10:34:49.830Z,7.90
2023-01-28T10:37:18.644Z,10.50
2023-01-28T10:39:47.240Z,14.37
2023-01-28T10:42:18.646Z,12.30
2023-01-28T10:44:46.463Z,8.73
2023-01-28T10:47:16.582Z,9.00
2023-01-28T10:49:51.136Z,8.83
2023-01-28T10:52:20.555Z,8.20
2023-01-28T10:54:49.915Z,8.20
2023-01-28T10:57:18.951Z,8.47
2023-01-28T10:59:50.088Z,7.40
2023-01-28T11:02:32.130Z,8.47
2023-01-28T11:05:07.103Z,8.30
2023-01-28T11:07:34.611Z,7.73
2023-01-28T11:10:02.199Z,8.70
2023-01-28T11:12:32.571Z,7.47
2023-01-28T11:15:00.711Z,7.10
2023-01-28T11:17:30.903Z,7.60
2023-01-28T11:20:01.192Z,7.40
2023-01-28T11:22:35.035Z,7.27
2023-01-28T11:25:03.980Z,7.50
2023-01-28T11:27:33.058Z,7.13
2023-01-28T11:30:04.652Z,7.80
2023-01-28T11:32:33.340Z,8.43
2023-01-28T11:35:02.273Z,9.70
2023-01-28T11:37:32.933Z,9.00
2023-01-28T11:40:04.993Z,8.63
2023-01-28T11:42:32.932Z,9.07
2023-01-28T11:45:00.834Z,8.63
2023-01-28T11:47:37.722Z,9.03
2023-01-28T11:50:16.486Z,9.80
2023-01-28T11:53:07.900Z,8.87
2023-01-28T11:55:43.294Z,7.60
2023-01-28T11:58:21.977Z,8.47
2023-01-28T12:00:54.038Z,8.30
2023-01-28T12:03:34.667Z,8.30
2023-01-28T12:06:14.044Z,7.70
2023-01-28T12:08:46.372Z,8.37
2023-01-28T12:11:43.341Z,8.83
2023-01-28T12:14:14.213Z,7.93
2023-01-28T12:16:58.584Z,8.97
2023-01-28T12:19:47.201Z,9.83
2023-01-28T12:22:21.241Z,10.30
2023-01-28T12:24:59.004Z,10.70
2023-01-28T12:27:32.246Z,12.10
2023-01-28T12:30:06.182Z,11.57
2023-01-28T12:32:40.211Z,12.33
2023-01-28T12:35:19.716Z,12.30
2023-01-28T12:37:56.718Z,12.33
2023-01-28T12:40:38.493Z,12.53
2023-01-28T12:43:11.479Z,11.80
2023-01-28T12:45:41.778Z,11.23
2023-01-28T12:48:12.356Z,11.47
2023-01-28T12:50:44.978Z,11.07
2023-01-28T12:53:23.075Z,11.53
2023-01-28T12:55:55.952Z,12.17
2023-01-28T12:58:33.135Z,11.67
2023-01-28T13:01:03.636Z,12.10
2023-01-28T13:03:36.327Z,10.70
2023-01-28T13:06:09.382Z,11.37
2023-01-28T13:08:38.304Z,11.90
2023-01-28T13:11:12.022Z,12.03
2023-01-28T13:13:46.221Z,11.73
2023-01-28T13:16:14.272Z,11.70
2023-01-28T13:18:46.738Z,11.03
2023-01-28T13:21:16.036Z,11.20
2023-01-28T13:23:46.826Z,10.80
2023-01-28T13:26:33.075Z,12.00
2023-01-28T13:29:21.651Z,10.73
2023-01-28T13:31:52.729Z,12.47
2023-01-28T13:34:33.368Z,12.17
2023-01-28T13:37:05.747Z,11.17
2023-01-28T13:39:35.376Z,11.93
2023-01-28T13:42:11.960Z,10.97
2023-01-28T13:44:39.730Z,11.60
2023-01-28T13:47:16.000Z,12.00
2023-01-28T13:49:45.947Z,12.07
2023-01-28T13:52:16.859Z,11.07
2023-01-28T13:54:46.731Z,10.90
2023-01-28T13:57:37.239Z,11.60
2023-01-28T14:00:09.947Z,10.77
2023-01-28T14:03:00.434Z,10.97
2023-01-28T14:05:47.544Z,11.23
2023-01-28T14:08:41.853Z,10.33
2023-01-28T14:11:14.860Z,11.10
2023-01-28T14:14:15.523Z,10.27
2023-01-28T14:16:52.061Z,9.70
2023-01-28T14:19:21.057Z,10.37
2023-01-28T14:21:48.518Z,10.13
2023-01-28T14:24:17.860Z,10.77
2023-01-28T14:26:52.393Z,11.03
2023-01-28T14:29:26.460Z,10.63
2023-01-28T14:31:54.927Z,10.00
2023-01-28T14:34:24.806Z,11.07
2023-01-28T14:36:55.945Z,10.70
2023-01-28T14:39:27.118Z,12.53
2023-01-28T14:41:56.585Z,13.47
2023-01-28T14:44:28.923Z,16.83
2023-01-28T14:47:04.035Z,14.80
2023-01-28T14:49:36.604Z,10.73
2023-01-28T14:52:13.492Z,10.50
2023-01-28T14:54:47.678Z,9.77
2023-01-28T14:57:33.114Z,10.43
2023-01-28T15:00:02.175Z,10.03
2023-01-28T15:02:30.592Z,11.00
2023-01-28T15:05:08.166Z,10.20
2023-01-28T15:07:35.687Z,10.87
2023-01-28T15:10:03.726Z,10.57
2023-01-28T15:12:33.969Z,10.93
2023-01-28T15:15:10.390Z,10.67
2023-01-28T15:17:37.959Z,10.43
2023-01-28T15:20:08.097Z,10.00
2023-01-28T15:22:35.616Z,9.17
2023-01-28T15:25:04.045Z,9.73
2023-01-28T15:27:32.321Z,9.73
2023-01-28T15:30:02.347Z,9.17
2023-01-28T15:32:31.624Z,10.47
2023-01-28T15:35:00.148Z,9.67
2023-01-28T15:37:28.453Z,9.17
2023-01-28T15:40:02.612Z,10.03
2023-01-28T15:42:31.733Z,9.40
2023-01-28T15:44:59.999Z,10.57
2023-01-28T15:47:29.877Z,9.73
2023-01-28T15:50:00.729Z,9.60
2023-01-28T15:52:33.824Z,10.47
2023-01-28T15:55:02.093Z,10.23
2023-01-28T15:57:30.946Z,10.47
2023-01-28T16:00:11.175Z,10.67
2023-01-28T16:02:44.611Z,11.30
2023-01-28T16:05:26.253Z,11.77
2023-01-28T16:07:54.125Z,11.40
2023-01-28T16:10:22.997Z,10.67
2023-01-28T16:12:52.984Z,11.17
2023-01-28T16:15:21.680Z,11.13
2023-01-28T16:17:50.334Z,11.43
2023-01-28T16:20:22.735Z,12.07
2023-01-28T16:22:52.170Z,11.57
2023-01-28T16:25:27.205Z,10.80
2023-01-28T16:27:54.811Z,12.83
2023-01-28T16:30:22.287Z,12.53
2023-01-28T16:32:49.802Z,10.40
2023-01-28T16:35:18.917Z,11.13
2023-01-28T16:37:46.736Z,12.13
2023-01-28T16:40:16.720Z,11.33
2023-01-28T16:42:44.865Z,12.33
2023-01-28T16:45:16.993Z,12.33
2023-01-28T16:47:44.656Z,11.80
2023-01-28T16:50:12.597Z,11.10
2023-01-28T16:52:41.720Z,11.17
2023-01-28T16:55:12.915Z,11.00
2023-01-28T16:57:41.792Z,10.80
2023-01-28T17:00:09.935Z,11.40
2023-01-28T17:02:37.438Z,10.80
2023-01-28T17:05:05.012Z,11.90
2023-01-28T17:07:32.423Z,11.17
2023-01-28T17:10:00.015Z,11.33
2023-01-28T17:12:27.420Z,11.07
2023-01-28T17:14:56.189Z,11.67
2023-01-28T17:17:23.681Z,11.37
2023-01-28T17:19:51.146Z,12.77
2023-01-28T17:22:18.613Z,12.00
2023-01-28T17:24:46.425Z,11.87
2023-01-28T17:27:13.844Z,11.57
2023-01-28T17:29:41.431Z,10.63
2023-01-28T17:32:10.268Z,12.33
2023-01-28T17:34:37.718Z,10.97
2023-01-28T17:37:05.346Z,11.60
2023-01-28T17:39:32.756Z,10.73
2023-01-28T17:42:00.175Z,10.60
2023-01-28T17:44:28.530Z,11.30
2023-01-28T17:46:55.961Z,11.40
2023-01-28T17:49:24.824Z,10.63
2023-01-28T17:51:52.994Z,11.43
2023-01-28T17:54:20.481Z,16.00
2023-01-28T17:56:47.917Z,14.10
2023-01-28T17:59:17.500Z,15.17
2023-01-28T18:01:45.453Z,11.97
2023-01-28T18:04:13.381Z,10.43
2023-01-28T18:06:42.221Z,10.00
2023-01-28T18:09:09.963Z,10.97
2023-01-28T18:11:38.475Z,10.43
2023-01-28T18:14:05.966Z,10.63
2023-01-28T18:16:33.535Z,10.60
2023-01-28T18:19:01.016Z,10.47
2023-01-28T18:21:42.888Z,10.43
2023-01-28T18:24:19.383Z,10.93
2023-01-28T18:26:46.972Z,10.87
2023-01-28T18:29:16.846Z,10.87
2023-01-28T18:31:44.777Z,10.77
2023-01-28T18:34:12.506Z,10.57
2023-01-28T18:36:39.969Z,11.33
2023-01-28T18:39:07.443Z,10.47
2023-01-28T18:41:36.228Z,10.13
2023-01-28T18:44:03.673Z,10.57
2023-01-28T18:46:31.094Z,10.97
2023-01-28T18:48:58.610Z,11.23
2023-01-28T18:51:30.774Z,10.70
2023-01-28T18:53:59.133Z,10.90
2023-01-28T18:56:26.605Z,11.87
2023-01-28T18:58:57.431Z,10.83
2023-01-28T19:01:24.917Z,11.37
2023-01-28T19:03:52.356Z,11.40
2023-01-28T19:06:19.816Z,11.03
2023-01-28T19:08:51.722Z,10.30
2023-01-28T19:11:19.218Z,10.63
2023-01-28T19:13:46.657Z,11.07
2023-01-28T19:16:15.534Z,10.73
2023-01-28T19:18:43.059Z,9.77
2023-01-28T19:21:10.529Z,11.30
2023-01-28T19:23:49.108Z,11.10
2023-01-28T19:26:21.019Z,10.97
2023-01-28T19:28:49.170Z,11.53
2023-01-28T19:31:19.658Z,10.90
2023-01-28T19:33:47.182Z,12.03
2023-01-28T19:36:15.167Z,10.73
2023-01-28T19:38:42.618Z,11.17
2023-01-28T19:41:12.233Z,11.20
2023-01-28T19:43:39.687Z,10.80
2023-01-28T19:46:07.270Z,11.67
2023-01-28T19:48:36.083Z,10.80
2023-01-28T19:51:08.327Z,11.87
2023-01-28T19:53:36.195Z,11.53
2023-01-28T19:56:04.653Z,11.80
2023-01-28T19:58:34.235Z,12.23
2023-01-28T20:01:04.930Z,11.50
2023-01-28T20:03:32.460Z,11.27
2023-01-28T20:06:02.232Z,10.63
2023-01-28T20:08:29.731Z,11.43
2023-01-28T20:11:03.247Z,11.10
2023-01-28T20:13:31.364Z,10.87
2023-01-28T20:15:58.879Z,11.03
2023-01-28T20:18:26.724Z,10.60
2023-01-28T20:20:54.425Z,11.03
2023-01-28T20:23:23.596Z,11.23
2023-01-28T20:25:51.820Z,10.47
2023-01-28T20:28:19.398Z,10.60
2023-01-28T20:30:46.995Z,10.47
2023-01-28T20:33:14.488Z,11.27
2023-01-28T20:35:41.963Z,10.07
2023-01-28T20:38:09.511Z,10.77
2023-01-28T20:40:40.092Z,10.77
2023-01-28T20:43:07.597Z,11.00
2023-01-28T20:45:35.329Z,10.80
2023-01-28T20:48:05.494Z,11.00
2023-01-28T20:50:33.250Z,11.10
2023-01-28T20:53:00.769Z,10.60
2023-01-28T20:55:29.421Z,11.13
2023-01-28T20:57:58.417Z,10.03
2023-01-28T21:00:25.949Z,10.20
2023-01-28T21:02:53.495Z,10.53
2023-01-28T21:05:20.981Z,10.50
2023-01-28T21:07:48.409Z,9.90
2023-01-28T21:10:16.373Z,10.10
2023-01-28T21:12:44.002Z,10.47
2023-01-28T21:15:13.150Z,10.37
2023-01-28T21:17:40.651Z,11.47
2023-01-28T21:20:08.829Z,10.47
2023-01-28T21:22:36.272Z,11.03
2023-01-28T21:25:05.531Z,10.33
2023-01-28T21:27:35.567Z,11.30
2023-01-28T21:30:02.991Z,10.57
2023-01-28T21:32:31.863Z,10.20
2023-01-28T21:34:59.470Z,10.20
2023-01-28T21:37:26.896Z,11.40
2023-01-28T21:39:54.359Z,11.00
2023-01-28T21:42:21.771Z,10.57
2023-01-28T21:44:49.290Z,10.10
2023-01-28T21:47:16.722Z,10.70
2023-01-28T21:49:45.519Z,10.97
2023-01-28T21:52:13.698Z,11.17
2023-01-28T21:54:41.165Z,10.87
2023-01-28T21:57:08.664Z,10.30
2023-01-28T21:59:38.065Z,10.40
2023-01-28T22:02:06.422Z,10.50
2023-01-28T22:04:35.216Z,10.40
2023-01-28T22:07:04.734Z,10.23
2023-01-28T22:09:33.651Z,10.47
2023-01-28T22:12:01.300Z,11.37
2023-01-28T22:14:28.868Z,10.53
2023-01-28T22:16:56.709Z,10.23
2023-01-28T22:19:24.223Z,11.63
2023-01-28T22:21:51.716Z,10.03
2023-01-28T22:24:22.365Z,10.23
2023-01-28T22:26:50.254Z,10.80
2023-01-28T22:29:18.636Z,10.37
2023-01-28T22:31:46.425Z,9.40
2023-01-28T22:34:13.937Z,9.80
2023-01-28T22:36:41.479Z,9.97
2023-01-28T22:39:11.836Z,9.60
2023-01-28T22:41:41.060Z,9.50
2023-01-28T22:44:08.558Z,10.50
2023-01-28T22:46:36.741Z,9.57
2023-01-28T22:49:05.191Z,9.97
2023-01-28T22:51:33.507Z,9.93
2023-01-28T22:54:02.098Z,9.13
2023-01-28T22:56:30.112Z,9.60
2023-01-28T22:58:59.577Z,10.17
2023-01-28T23:01:27.259Z,9.20
2023-01-28T23:03:56.027Z,10.20
2023-01-28T23:06:24.172Z,9.73
2023-01-28T23:08:51.902Z,10.13
2023-01-28T23:11:27.130Z,9.60
2023-01-28T23:14:12.863Z,10.27
2023-01-28T23:16:58.951Z,9.80
2023-01-28T23:19:44.708Z,10.53
2023-01-28T23:22:30.967Z,9.77
2023-01-28T23:24:58.598Z,10.50
2023-01-28T23:27:26.092Z,11.27
2023-01-28T23:29:53.592Z,11.33
2023-01-28T23:32:23.476Z,10.73
2023-01-28T23:34:51.008Z,11.07
2023-01-28T23:37:18.690Z,10.97
2023-01-28T23:39:46.226Z,10.27
2023-01-28T23:42:14.526Z,10.43
2023-01-28T23:44:42.061Z,10.00
2023-01-28T23:47:09.936Z,9.50
2023-01-28T23:49:38.959Z,9.87
2023-01-28T23:52:06.777Z,9.00
2023-01-28T23:54:34.518Z,8.83
2023-01-28T23:57:02.175Z,8.47
2023-01-28T23:59:29.683Z,8.53
